WetterOnline ( http://www.wetteronline.de )

Wetter aktuell Kyritz

Aktuelles Wetter: Kyritz (42m)

6-stündlich | Neueste Meldungen
Ortszeit Temperatur Wetter
Mi, 20.06. 20:00 25.5° C wolkenlos
Mi, 20.06. 14:00 23.9° C bedeckt
Mi, 20.06. 8:00 18.2° C bedeckt
Mi, 20.06. 2:00 18.0° C bedeckt
Di, 19.06. 20:00 22.1° C fast wolkenlos
Di, 19.06. 14:00 22.6° C bewölkt
Di, 19.06. 8:00 18.7° C wolkenlos
Di, 19.06. 2:00 18.3° C bedeckt
Ortszeit Temperatur Wetter
Mi, 20.06. 20:30 24.9° C wolkenlos
Mi, 20.06. 20:10 25.0° C wolkenlos
Mi, 20.06. 20:00 25.5° C wolkenlos
Mi, 20.06. 19:50 25.5° C wolkenlos
Mi, 20.06. 19:40 25.7° C wolkenlos
Mi, 20.06. 19:30 26.2° C wolkenlos
Mi, 20.06. 19:00 26.0° C leicht bewölkt
Mi, 20.06. 18:30 27.0° C leicht bewölkt
Mi, 20.06. 18:00 26.8° C wolkig
Mi, 20.06. 17:30 25.7° C leicht bewölkt
Ortszeit Relative Feuchte Sichtweite
Mi, 20.06. 20:00 47% 40 km
Mi, 20.06. 14:00 59% 20 km
Mi, 20.06. 8:00 65% 60 km
Mi, 20.06. 2:00 72% 50 km
Di, 19.06. 20:00 61% 35 km
Di, 19.06. 14:00 59% 22 km
Di, 19.06. 8:00 68% 17 km
Di, 19.06. 2:00 78% 35 km
Ortszeit Relative Feuchte Sichtweite
Mi, 20.06. 20:30 50% 30 km
Mi, 20.06. 20:10 50% -
Mi, 20.06. 20:00 47% 40 km
Mi, 20.06. 19:50 47% -
Mi, 20.06. 19:40 47% -
Mi, 20.06. 19:30 45% 40 km
Mi, 20.06. 19:00 44% 35 km
Mi, 20.06. 18:30 42% 45 km
Mi, 20.06. 18:00 45% 30 km
Mi, 20.06. 17:30 49% 25 km
Ortszeit Niederschlagsmenge Niederschlagsart
Mi, 20.06. 20:00 0.0 l/m2 in 12 Std. -
Mi, 20.06. 14:00 0.0 l/m2 in 6 Std. -
Mi, 20.06. 8:00 0.0 l/m2 in 12 Std. -
Mi, 20.06. 2:00 0.0 l/m2 in 6 Std. -
Di, 19.06. 20:00 0.0 l/m2 in 12 Std. -
Di, 19.06. 14:00 0.0 l/m2 in 6 Std. -
Di, 19.06. 8:00 0.0 l/m2 in 12 Std. -
Di, 19.06. 2:00 0.0 l/m2 in 6 Std. -
Ortszeit Niederschlagsmenge Niederschlagsart
Mi, 20.06. 20:30 0.0 l/m2 in 1 Std. -
Mi, 20.06. 20:10 keine Meldung -
Mi, 20.06. 20:00 0.0 l/m2 in 1 Std. -
Mi, 20.06. 19:50 keine Meldung -
Mi, 20.06. 19:40 keine Meldung -
Mi, 20.06. 19:30 0.0 l/m2 in 1 Std. -
Mi, 20.06. 19:00 0.0 l/m2 in 1 Std. -
Mi, 20.06. 18:30 0.0 l/m2 in 1 Std. -
Mi, 20.06. 18:00 0.0 l/m2 in 1 Std. -
Mi, 20.06. 17:30 0.0 l/m2 in 1 Std. -
Ortszeit Stärke Spitze Richtung
km/h Bft. km/h Grad Sektor
Mi, 20.06. 20:00 15 3 33 270° W
Mi, 20.06. 14:00 17 3 30 210° SW
Mi, 20.06. 8:00 4 1 14 210° SW
Mi, 20.06. 2:00 7 2 36 340° N
Di, 19.06. 20:00 14 3 36 260° W
Di, 19.06. 14:00 22 4 40 270° W
Di, 19.06. 8:00 14 3 29 270° W
Di, 19.06. 2:00 11 2 25 240° SW
Ortszeit Stärke Spitze Richtung
km/h Bft. km/h Grad Sektor
Mi, 20.06. 20:30 13 3 24 260° W
Mi, 20.06. 20:10 13 3 - 270° W
Mi, 20.06. 20:00 15 3 30 270° W
Mi, 20.06. 19:50 15 3 - 270° W
Mi, 20.06. 19:40 15 3 - 260° W
Mi, 20.06. 19:30 13 3 30 260° W
Mi, 20.06. 19:00 17 3 33 250° W
Mi, 20.06. 18:30 20 4 30 260° W
Mi, 20.06. 18:00 15 3 33 240° SW
Mi, 20.06. 17:30 20 4 33 230° SW
Ortszeit Untergrenze Bedeckung Gattung
total tief tief mittel hoch
Mi, 20.06. 20:00 - 0/8 0/8 - - -
Mi, 20.06. 14:00 1800 m 8/8 8/8 - - -
Mi, 20.06. 8:00 1500 m 8/8 8/8 - - -
Mi, 20.06. 2:00 1500 m 8/8 8/8 - - -
Di, 19.06. 20:00 1080 m 1/8 1/8 - - -
Di, 19.06. 14:00 1050 m 7/8 7/8 - - -
Di, 19.06. 8:00 1500 m 0/8 0/8 - - -
Di, 19.06. 2:00 900 m 8/8 8/8 - - -
Ortszeit Bedeckungsgrad in Achtel und Wolkenuntergrenze
Mi, 20.06. 20:30 keine Wolken
Mi, 20.06. 20:10 keine Wolken
Mi, 20.06. 20:00 keine Wolken
Mi, 20.06. 19:50 keine Wolken
Mi, 20.06. 19:40 keine Wolken
Mi, 20.06. 19:30 keine Wolken
Mi, 20.06. 19:00 4(1800m)
Mi, 20.06. 18:30 4(1800m)
Mi, 20.06. 18:00 5(1800m)
Mi, 20.06. 17:30 4(1800m)
Ortszeit Luftdruck NN (hPa) Tendenz (hPa in 3 Std.)
Mi, 20.06. 20:00 1016 - 1,9
Mi, 20.06. 14:00 1020 - 1,6
Mi, 20.06. 8:00 1023 - 0,2
Mi, 20.06. 2:00 1023 + 0,4
Di, 19.06. 20:00 1021 0,0
Di, 19.06. 14:00 1021 + 0,1
Di, 19.06. 8:00 1020 + 1,0
Di, 19.06. 2:00 1019 + 0,2
Ortszeit Luftdruck NN (hPa) Tendenz (hPa in 3 Std.)
Mi, 20.06. 20:30 1016 - 1,7
Mi, 20.06. 20:10 1016 keine Meldung
Mi, 20.06. 20:00 1016 - 1,9
Mi, 20.06. 19:50 1016 keine Meldung
Mi, 20.06. 19:40 1016 keine Meldung
Mi, 20.06. 19:30 1016 - 2,1
Mi, 20.06. 19:00 1017 - 2,1
Mi, 20.06. 18:30 1017 - 2,3
Mi, 20.06. 18:00 1017 - 2,4
Mi, 20.06. 17:30 1018 - 2,2
Ortszeit Schneehöhe (cm)
Mi, 20.06. 20:00 -
Mi, 20.06. 14:00 -
Mi, 20.06. 8:00 -
Mi, 20.06. 2:00 -
Di, 19.06. 20:00 -
Di, 19.06. 14:00 -
Di, 19.06. 8:00 -
Di, 19.06. 2:00 -
Ortszeit Schneehöhe (cm)
Mi, 20.06. 20:30 -
Mi, 20.06. 20:10 -
Mi, 20.06. 20:00 -
Mi, 20.06. 19:50 -
Mi, 20.06. 19:40 -
Mi, 20.06. 19:30 -
Mi, 20.06. 19:00 -
Mi, 20.06. 18:30 -
Mi, 20.06. 18:00 -
Mi, 20.06. 17:30 -
Link zu dieser Seite / Seite empfehlen

Das Wetter in ...